Time;durP1;ratioP1;P1;durP2;ratioP2;P2;SDS_P1;SDS_P2;PMS_P1;PMS_P2;Temp;Humidity;BMP_temperature;BMP_pressure;BME280_temperature;BME280_humidity;BME280_pressure;Samples;Min_cycle;Max_cycle;Signal;HPM_P1;HPM_P2
2023/03/08 00:00:12;;;;;;;1.52;0.50;;;2.50;99.90;;;;;;6157338;23;20156;-76
2023/03/08 00:02:38;;;;;;;1.70;0.85;;;2.40;99.90;;;;;;6206259;23;20020;-78
2023/03/08 00:05:05;;;;;;;1.55;0.60;;;3.30;99.90;;;;;;6206968;23;20051;-76
2023/03/08 00:07:31;;;;;;;1.98;0.65;;;2.40;99.90;;;;;;6207383;23;20043;-76
2023/03/08 00:09:57;;;;;;;2.08;0.63;;;2.40;99.90;;;;;;6181849;23;20016;-76
2023/03/08 00:12:23;;;;;;;1.98;0.60;;;2.40;99.90;;;;;;6181941;23;20021;-76
2023/03/08 00:14:49;;;;;;;0.88;0.60;;;2.30;99.90;;;;;;6231799;23;20020;-76
2023/03/08 00:17:16;;;;;;;4.22;0.70;;;2.40;99.90;;;;;;6207550;23;20021;-75
2023/03/08 00:19:42;;;;;;;1.33;0.70;;;2.30;99.90;;;;;;6206430;23;20020;-76
2023/03/08 00:22:09;;;;;;;5.25;0.73;;;3.10;99.90;;;;;;6206625;23;20083;-76
2023/03/08 00:24:35;;;;;;;2.33;0.70;;;2.70;99.90;;;;;;6206263;23;20098;-78
2023/03/08 00:27:00;;;;;;;0.65;0.50;;;3.60;99.90;;;;;;6181320;23;20821;-76
2023/03/08 00:29:26;;;;;;;0.63;0.50;;;2.80;99.90;;;;;;6206731;23;20016;-76
2023/03/08 00:31:52;;;;;;;1.65;0.70;;;3.30;99.90;;;;;;6181766;23;20016;-76
2023/03/08 00:34:18;;;;;;;1.30;0.50;;;2.30;99.90;;;;;;6206204;23;20661;-76
2023/03/08 00:36:44;;;;;;;1.00;0.60;;;2.20;99.90;;;;;;6181356;23;20027;-76
2023/03/08 00:39:15;;;;;;;2.22;0.88;;;2.20;99.90;;;;;;6182467;23;20135;-75
2023/03/08 00:41:41;;;;;;;1.50;0.50;;;2.20;99.90;;;;;;6206808;23;20423;-78
2023/03/08 00:44:07;;;;;;;1.55;0.60;;;2.40;99.90;;;;;;6180634;23;20024;-76
2023/03/08 00:46:33;;;;;;;3.63;0.88;;;2.20;99.90;;;;;;6206321;23;20020;-76
2023/03/08 00:48:59;;;;;;;1.35;0.60;;;2.10;99.90;;;;;;6181707;23;20028;-76
2023/03/08 00:51:25;;;;;;;3.70;0.95;;;2.20;99.90;;;;;;6182185;23;20081;-76
2023/03/08 00:53:51;;;;;;;3.63;1.10;;;2.20;99.90;;;;;;6205578;23;20027;-76
2023/03/08 00:56:17;;;;;;;1.77;0.60;;;2.40;99.90;;;;;;6206814;23;20024;-76
2023/03/08 00:58:43;;;;;;;2.60;0.70;;;2.20;99.90;;;;;;6205948;23;20016;-76
2023/03/08 01:01:13;;;;;;;2.45;0.63;;;2.20;99.90;;;;;;6181632;23;20107;-76
2023/03/08 01:03:39;;;;;;;6.03;0.73;;;2.70;99.90;;;;;;6206182;23;20440;-76
2023/03/08 01:06:10;;;;;;;0.82;0.50;;;2.10;99.90;;;;;;6181465;23;20136;-76
2023/03/08 01:08:36;;;;;;;2.70;0.70;;;2.50;99.90;;;;;;6206310;23;20021;-76
2023/03/08 01:11:02;;;;;;;4.32;0.98;;;2.20;99.90;;;;;;6180665;23;20046;-76
2023/03/08 01:13:34;;;;;;;2.80;0.70;;;1.90;99.90;;;;;;6181393;23;20021;-75
2023/03/08 01:16:00;;;;;;;4.05;0.80;;;2.80;99.90;;;;;;6205755;23;20024;-77
2023/03/08 01:18:26;;;;;;;1.83;0.82;;;1.80;99.90;;;;;;6206789;23;20124;-76
2023/03/08 01:21:03;;;;;;;2.78;0.60;;;1.70;99.90;;;;;;6206173;23;20031;-76
2023/03/08 01:23:30;;;;;;;1.45;0.52;;;1.60;99.90;;;;;;6206642;23;21025;-77
2023/03/08 01:26:09;;;;;;;0.88;0.45;;;1.80;99.90;;;;;;6205830;23;20089;-76
2023/03/08 01:29:19;;;;;;;1.90;0.60;;;1.60;99.90;;;;;;6206639;23;20082;-76
2023/03/08 01:31:45;;;;;;;0.68;0.50;;;1.50;99.90;;;;;;6206354;23;20344;-78
2023/03/08 01:34:10;;;;;;;1.67;0.70;;;1.40;99.90;;;;;;6205515;23;20531;-76
2023/03/08 01:36:55;;;;;;;1.38;0.43;;;1.80;99.90;;;;;;6180959;23;20020;-76
2023/03/08 01:39:24;;;;;;;1.77;0.60;;;1.70;99.90;;;;;;6206451;23;20020;-76
2023/03/08 01:41:49;;;;;;;3.45;0.60;;;1.30;99.90;;;;;;6180450;23;20111;-76
2023/03/08 01:44:17;;;;;;;1.27;0.60;;;1.30;99.90;;;;;;6206908;23;20052;-76
2023/03/08 01:46:43;;;;;;;0.98;0.52;;;1.20;99.90;;;;;;6207110;23;20352;-76
2023/03/08 01:49:20;;;;;;;1.52;0.70;;;1.30;99.90;;;;;;6181009;23;20182;-76
2023/03/08 01:51:49;;;;;;;1.23;0.63;;;1.20;99.90;;;;;;6207241;23;20016;-76
2023/03/08 01:54:16;;;;;;;2.03;0.93;;;1.90;99.90;;;;;;6180799;23;20024;-75
2023/03/08 01:56:43;;;;;;;0.63;0.55;;;1.30;99.90;;;;;;6206183;23;20031;-76
2023/03/08 01:59:10;;;;;;;1.48;0.50;;;1.00;99.90;;;;;;6181119;23;20611;-76
2023/03/08 02:01:37;;;;;;;0.68;0.35;;;1.00;99.90;;;;;;6181048;23;20021;-75
2023/03/08 02:04:04;;;;;;;1.48;0.40;;;1.90;99.90;;;;;;6205131;23;20356;-76
2023/03/08 02:06:30;;;;;;;0.57;0.50;;;1.00;99.90;;;;;;6206186;23;20039;-75
2023/03/08 02:08:56;;;;;;;0.75;0.50;;;1.30;99.90;;;;;;6205558;23;20017;-75
2023/03/08 02:11:24;;;;;;;2.08;0.70;;;1.70;99.90;;;;;;6206285;23;20744;-75
2023/03/08 02:13:51;;;;;;;1.08;0.68;;;1.00;99.90;;;;;;6180488;23;20032;-78
2023/03/08 02:16:18;;;;;;;2.03;0.60;;;1.60;99.90;;;;;;6206441;23;20021;-77
2023/03/08 02:18:59;;;;;;;1.27;0.80;;;0.70;99.90;;;;;;6181762;23;20063;-76
2023/03/08 02:21:27;;;;;;;1.60;0.50;;;1.80;99.90;;;;;;6181751;23;20074;-76
2023/03/08 02:23:53;;;;;;;0.57;0.40;;;1.80;99.90;;;;;;6204928;23;20722;-77
2023/03/08 02:26:20;;;;;;;1.63;0.35;;;1.00;99.90;;;;;;6156025;23;20334;-75
2023/03/08 02:28:45;;;;;;;1.05;0.60;;;1.20;99.90;;;;;;6182185;23;20112;-76
2023/03/08 02:31:12;;;;;;;0.85;0.50;;;1.10;99.90;;;;;;6181450;23;20252;-76
2023/03/08 02:33:38;;;;;;;2.13;0.50;;;1.40;99.90;;;;;;6181720;23;20051;-75
2023/03/08 02:36:06;;;;;;;0.95;0.50;;;0.90;99.90;;;;;;6181199;23;20020;-76
2023/03/08 02:38:33;;;;;;;0.45;0.40;;;1.00;99.90;;;;;;6181246;23;20067;-76
2023/03/08 02:40:58;;;;;;;2.80;0.80;;;0.90;99.90;;;;;;6180780;23;20021;-76
2023/03/08 02:43:24;;;;;;;1.85;0.57;;;1.50;99.90;;;;;;6155087;23;20027;-75
2023/03/08 02:45:50;;;;;;;1.52;0.50;;;1.00;99.90;;;;;;6155510;23;20032;-77
2023/03/08 02:48:17;;;;;;;1.17;0.50;;;2.60;99.90;;;;;;6132025;23;20030;-76
2023/03/08 02:50:42;;;;;;;1.00;0.60;;;1.10;99.90;;;;;;6182971;23;20107;-75
2023/03/08 02:53:08;;;;;;;0.70;0.50;;;1.00;99.90;;;;;;6181817;23;20020;-75
2023/03/08 02:55:38;;;;;;;0.63;0.50;;;1.80;99.90;;;;;;6158846;23;20052;-76
2023/03/08 02:58:06;;;;;;;1.83;0.47;;;1.00;99.90;;;;;;6183618;23;20017;-77
2023/03/08 03:00:32;;;;;;;0.70;0.50;;;2.40;99.90;;;;;;6158838;23;20020;-76
2023/03/08 03:02:58;;;;;;;1.52;0.73;;;1.90;99.90;;;;;;6181806;23;20021;-76
2023/03/08 03:05:24;;;;;;;1.80;0.60;;;1.10;99.90;;;;;;6182841;23;20055;-77
2023/03/08 03:07:50;;;;;;;1.10;0.57;;;1.10;99.90;;;;;;6158211;23;20522;-76
2023/03/08 03:10:16;;;;;;;1.95;0.63;;;1.10;99.90;;;;;;6157470;23;20055;-75
2023/03/08 03:12:42;;;;;;;0.40;0.40;;;1.00;99.90;;;;;;6157219;23;20028;-76
2023/03/08 03:15:10;;;;;;;2.35;0.60;;;1.60;99.90;;;;;;6157556;23;20016;-76
2023/03/08 03:17:36;;;;;;;1.65;0.50;;;1.00;99.90;;;;;;6157534;23;20028;-75
2023/03/08 03:20:08;;;;;;;1.20;0.70;;;1.50;99.90;;;;;;6182379;23;20021;-76
2023/03/08 03:22:35;;;;;;;2.50;0.60;;;0.90;99.90;;;;;;6181772;23;20546;-75
2023/03/08 03:25:00;;;;;;;2.90;0.70;;;0.90;99.90;;;;;;6167213;23;20030;-75
2023/03/08 03:27:26;;;;;;;1.45;0.60;;;1.90;99.90;;;;;;6182083;23;20060;-76
2023/03/08 03:29:52;;;;;;;1.98;0.60;;;1.00;99.90;;;;;;6207827;23;20074;-76
2023/03/08 03:32:18;;;;;;;1.48;0.57;;;0.80;99.90;;;;;;6181349;23;20424;-75
2023/03/08 03:34:44;;;;;;;1.00;0.60;;;0.80;99.90;;;;;;6157710;23;20020;-76
2023/03/08 03:37:09;;;;;;;2.05;0.90;;;0.70;99.90;;;;;;6157189;23;20037;-75
2023/03/08 03:39:38;;;;;;;1.92;0.80;;;1.00;99.90;;;;;;6182097;23;20017;-76
2023/03/08 03:42:06;;;;;;;2.92;0.70;;;0.80;99.90;;;;;;6231411;23;20017;-76
2023/03/08 03:44:32;;;;;;;2.10;0.60;;;0.70;99.90;;;;;;6207095;23;20135;-75
2023/03/08 03:46:57;;;;;;;0.82;0.60;;;1.20;99.90;;;;;;6207010;23;20033;-78
2023/03/08 03:49:24;;;;;;;1.83;0.70;;;0.70;99.90;;;;;;6182300;23;20076;-75
2023/03/08 03:51:50;;;;;;;1.25;0.65;;;0.70;99.90;;;;;;6206536;23;20296;-76
2023/03/08 03:54:15;;;;;;;1.67;0.73;;;1.30;99.90;;;;;;6182301;23;20541;-75
2023/03/08 03:56:41;;;;;;;0.60;0.60;;;0.70;99.90;;;;;;6181979;23;20112;-76
2023/03/08 03:59:07;;;;;;;2.70;0.70;;;2.00;99.90;;;;;;6231608;23;20083;-75
2023/03/08 04:01:33;;;;;;;2.40;0.65;;;1.10;99.90;;;;;;6181766;23;20451;-76
2023/03/08 04:03:59;;;;;;;2.45;0.60;;;0.70;99.90;;;;;;6206576;23;20027;-77
2023/03/08 04:06:26;;;;;;;1.33;0.60;;;0.60;99.90;;;;;;6206760;23;20027;-75
2023/03/08 04:08:54;;;;;;;1.63;0.60;;;1.00;99.90;;;;;;6207156;23;20103;-76
2023/03/08 04:11:22;;;;;;;1.50;0.63;;;0.50;99.90;;;;;;6206426;23;20020;-76
2023/03/08 04:13:49;;;;;;;1.10;0.60;;;0.50;99.90;;;;;;6206603;23;20391;-76
2023/03/08 04:16:27;;;;;;;1.77;1.13;;;1.30;99.90;;;;;;6206711;23;20012;-76
2023/03/08 04:18:55;;;;;;;1.42;0.70;;;0.40;99.90;;;;;;6206908;23;20008;-76
2023/03/08 04:21:22;;;;;;;1.20;0.60;;;1.00;99.90;;;;;;6206600;23;20042;-75
2023/03/08 04:23:47;;;;;;;1.38;0.65;;;0.70;99.90;;;;;;6206155;23;20017;-75
2023/03/08 04:26:14;;;;;;;0.77;0.60;;;1.50;99.90;;;;;;6156537;23;20036;-76
2023/03/08 04:28:40;;;;;;;1.33;0.50;;;0.30;99.90;;;;;;6181974;23;20060;-76
2023/03/08 04:31:27;;;;;;;3.00;0.80;;;1.40;99.90;;;;;;6156481;23;20028;-76
2023/03/08 04:33:53;;;;;;;1.65;0.60;;;0.20;99.90;;;;;;6181967;23;20347;-75
2023/03/08 04:36:19;;;;;;;7.80;1.00;;;1.20;99.90;;;;;;6181396;23;20755;-75
2023/03/08 04:38:46;;;;;;;4.75;0.90;;;1.30;99.90;;;;;;6208689;23;20024;-76
2023/03/08 04:41:12;;;;;;;2.85;0.80;;;0.20;99.90;;;;;;6156275;23;20017;-75
2023/03/08 04:43:49;;;;;;;2.35;0.70;;;1.50;99.90;;;;;;6180513;23;20071;-75
2023/03/08 04:46:17;;;;;;;1.77;0.80;;;1.50;99.90;;;;;;6181246;23;20778;-76
2023/03/08 04:48:43;;;;;;;1.30;0.50;;;0.30;99.90;;;;;;6180747;23;20016;-76
2023/03/08 04:51:11;;;;;;;4.43;0.77;;;0.10;99.90;;;;;;6181552;23;20021;-75
2023/03/08 04:53:38;;;;;;;1.23;0.50;;;1.40;99.90;;;;;;6181353;23;20024;-75
2023/03/08 04:56:05;;;;;;;2.58;0.70;;;0.00;99.90;;;;;;6156584;23;20024;-76
2023/03/08 04:58:31;;;;;;;2.90;0.60;;;0.00;99.90;;;;;;6181386;23;20025;-76
2023/03/08 05:00:57;;;;;;;3.83;0.80;;;-0.10;99.90;;;;;;6157043;23;20031;-75
2023/03/08 05:03:22;;;;;;;3.30;0.95;;;1.00;99.90;;;;;;6155526;23;20347;-75
2023/03/08 05:05:54;;;;;;;2.35;0.90;;;1.40;99.90;;;;;;6156836;23;20086;-75
2023/03/08 05:08:21;;;;;;;0.95;0.68;;;-0.20;99.90;;;;;;6181221;23;20024;-75
2023/03/08 05:10:58;;;;;;;1.08;0.60;;;1.20;99.90;;;;;;6155756;23;20024;-75
2023/03/08 05:13:29;;;;;;;2.03;0.60;;;1.00;99.90;;;;;;6180413;23;20020;-74
2023/03/08 05:15:55;;;;;;;4.25;0.70;;;-0.30;99.90;;;;;;6181319;23;20024;-75
2023/03/08 05:18:20;;;;;;;1.42;0.80;;;1.00;99.90;;;;;;6180804;23;20016;-78
2023/03/08 05:20:58;;;;;;;2.72;0.80;;;0.60;99.90;;;;;;6156990;23;20127;-76
2023/03/08 05:23:25;;;;;;;3.05;0.65;;;0.20;99.90;;;;;;6155733;23;20273;-75
2023/03/08 05:25:57;;;;;;;1.45;0.70;;;0.90;99.90;;;;;;6177180;23;20028;-75
2023/03/08 05:28:25;;;;;;;1.50;0.70;;;-0.50;99.90;;;;;;6206018;23;20379;-75
2023/03/08 05:31:00;;;;;;;3.28;0.73;;;0.00;99.90;;;;;;6206799;23;20326;-76
2023/03/08 05:33:25;;;;;;;3.55;0.90;;;-0.10;99.90;;;;;;6205340;23;20507;-75
2023/03/08 05:35:53;;;;;;;5.10;1.15;;;0.30;99.90;;;;;;6131724;23;20021;-75
2023/03/08 05:38:20;;;;;;;3.53;0.82;;;-0.70;99.90;;;;;;6205955;23;20456;-75
2023/03/08 05:40:46;;;;;;;2.03;0.80;;;-0.70;99.90;;;;;;6206622;23;20047;-74
2023/03/08 05:43:12;;;;;;;3.20;1.20;;;-0.40;99.90;;;;;;6180206;23;20016;-75
2023/03/08 05:45:37;;;;;;;3.35;0.82;;;-0.70;99.90;;;;;;6206434;23;20618;-74
2023/03/08 05:48:03;;;;;;;3.95;0.82;;;-0.70;99.90;;;;;;6181368;23;20025;-75
2023/03/08 05:50:29;;;;;;;1.23;0.70;;;-0.70;99.90;;;;;;6180696;23;20360;-77
2023/03/08 05:52:54;;;;;;;1.80;0.70;;;-0.80;99.90;;;;;;6205525;23;20444;-74
2023/03/08 05:55:20;;;;;;;2.70;0.80;;;-0.80;99.90;;;;;;6206282;23;20020;-75
2023/03/08 05:57:46;;;;;;;0.82;0.68;;;-0.80;99.90;;;;;;6206428;23;20020;-76
2023/03/08 06:00:12;;;;;;;1.70;0.68;;;-0.10;99.90;;;;;;6180845;23;20028;-75
2023/03/08 06:02:38;;;;;;;1.02;0.73;;;-0.90;99.90;;;;;;6206054;23;20368;-75
2023/03/08 06:05:04;;;;;;;1.77;0.80;;;-1.00;99.90;;;;;;6132465;23;20017;-75
2023/03/08 06:07:31;;;;;;;3.10;0.80;;;-1.00;99.90;;;;;;6205946;23;20028;-75
2023/03/08 06:09:57;;;;;;;2.10;0.68;;;-1.10;99.90;;;;;;6181970;23;20392;-75
2023/03/08 06:12:23;;;;;;;1.33;0.90;;;-1.10;99.90;;;;;;6181031;23;20341;-75
2023/03/08 06:14:48;;;;;;;2.95;0.90;;;-1.10;99.90;;;;;;6206426;23;20396;-76
2023/03/08 06:17:14;;;;;;;2.28;1.20;;;-1.10;99.90;;;;;;6156199;23;20087;-74
2023/03/08 06:19:40;;;;;;;5.15;1.20;;;-1.10;99.90;;;;;;6206045;23;20119;-75
2023/03/08 06:22:06;;;;;;;4.30;1.30;;;-0.30;99.90;;;;;;6205845;23;20506;-75
2023/03/08 06:24:31;;;;;;;3.25;1.20;;;-1.00;99.90;;;;;;6181878;23;20039;-74
2023/03/08 06:26:58;;;;;;;1.90;0.90;;;-0.90;99.90;;;;;;6183274;23;20471;-76
2023/03/08 06:29:24;;;;;;;5.43;1.13;;;-0.10;99.90;;;;;;6182676;23;20027;-75
2023/03/08 06:31:50;;;;;;;2.25;1.15;;;0.50;99.90;;;;;;6133616;23;20021;-76
2023/03/08 06:34:16;;;;;;;3.47;1.40;;;-0.70;99.90;;;;;;6207665;23;20512;-75
2023/03/08 06:36:42;;;;;;;3.72;1.05;;;-0.50;99.90;;;;;;6208015;23;20470;-75
2023/03/08 06:39:08;;;;;;;5.20;1.23;;;0.90;99.90;;;;;;6207569;23;20016;-74
2023/03/08 06:41:34;;;;;;;3.83;1.65;;;-0.10;99.90;;;;;;6182238;23;20082;-74
2023/03/08 06:44:00;;;;;;;6.63;1.40;;;-0.50;99.90;;;;;;6207731;23;20016;-74
2023/03/08 06:46:26;;;;;;;4.88;1.42;;;-0.50;99.90;;;;;;6207373;23;20023;-75
2023/03/08 06:48:53;;;;;;;2.40;1.27;;;-0.10;99.90;;;;;;6207900;23;20097;-74
2023/03/08 06:51:19;;;;;;;2.33;1.00;;;-0.50;99.90;;;;;;6182530;23;20074;-74
2023/03/08 06:53:45;;;;;;;3.05;1.20;;;-0.50;99.90;;;;;;6207722;23;20110;-74
2023/03/08 06:56:14;;;;;;;3.15;0.88;;;-0.50;99.90;;;;;;6207374;23;20063;-74
2023/03/08 06:58:40;;;;;;;5.60;1.10;;;0.40;99.90;;;;;;6207442;23;20029;-75
2023/03/08 07:01:08;;;;;;;2.75;1.00;;;0.40;99.90;;;;;;6158336;23;20024;-74
2023/03/08 07:03:34;;;;;;;1.52;0.73;;;1.00;99.90;;;;;;6206467;23;20411;-76
2023/03/08 07:06:06;;;;;;;8.02;1.20;;;-0.40;99.90;;;;;;6206953;23;20111;-74
2023/03/08 07:08:32;;;;;;;2.72;1.02;;;-0.30;99.90;;;;;;6207754;23;20090;-75
2023/03/08 07:10:58;;;;;;;2.40;0.90;;;1.40;99.90;;;;;;6207693;23;20012;-75
2023/03/08 07:13:25;;;;;;;4.93;1.48;;;-0.20;99.90;;;;;;6206947;23;20095;-78
2023/03/08 07:15:51;;;;;;;8.23;2.03;;;-0.20;99.90;;;;;;6182184;23;20021;-78
2023/03/08 07:18:20;;;;;;;1.75;0.90;;;-0.20;99.90;;;;;;6208431;23;20025;-80
2023/03/08 07:20:51;;;;;;;2.58;1.17;;;-0.30;99.90;;;;;;6209693;23;20048;-78
2023/03/08 07:23:17;;;;;;;2.63;1.10;;;1.40;99.90;;;;;;6207008;23;20071;-77
2023/03/08 07:25:43;;;;;;;6.65;1.33;;;-0.10;99.90;;;;;;6207269;23;20042;-78
2023/03/08 07:28:09;;;;;;;3.10;1.17;;;-0.10;99.90;;;;;;6182368;23;20035;-78
2023/03/08 07:30:34;;;;;;;4.28;1.00;;;1.70;99.90;;;;;;6181723;23;20091;-80
2023/03/08 07:33:00;;;;;;;5.63;1.20;;;0.90;99.90;;;;;;6133191;23;20345;-78
2023/03/08 07:35:26;;;;;;;1.92;1.00;;;0.90;99.90;;;;;;6156734;23;20103;-77
2023/03/08 07:37:52;;;;;;;4.05;1.08;;;2.00;99.90;;;;;;6182315;23;20495;-78
2023/03/08 07:40:18;;;;;;;6.95;3.40;;;1.00;99.90;;;;;;6133095;23;20322;-79
2023/03/08 07:42:44;;;;;;;3.92;1.10;;;0.20;99.90;;;;;;6181291;23;20020;-80
2023/03/08 07:45:11;;;;;;;3.58;1.17;;;1.40;99.90;;;;;;6182590;23;20441;-79
2023/03/08 07:47:37;;;;;;;4.18;1.30;;;2.30;99.90;;;;;;6203803;23;20100;-81
2023/03/08 07:50:03;;;;;;;3.83;1.27;;;0.40;99.90;;;;;;6207350;23;20024;-80
2023/03/08 07:52:30;;;;;;;5.18;1.50;;;0.40;99.90;;;;;;6177006;23;20023;-79
2023/03/08 07:54:56;;;;;;;5.20;1.65;;;0.50;99.90;;;;;;6203184;23;20096;-79
2023/03/08 07:57:23;;;;;;;3.75;1.15;;;2.50;99.90;;;;;;6154466;23;20759;-82
2023/03/08 07:59:50;;;;;;;2.83;1.30;;;0.60;99.90;;;;;;6205151;23;20878;-80
2023/03/08 08:02:16;;;;;;;4.47;1.33;;;2.30;99.90;;;;;;6204186;23;20024;-82
2023/03/08 08:04:42;;;;;;;3.65;1.30;;;0.70;99.90;;;;;;6179299;23;20452;-80
2023/03/08 08:07:12;;;;;;;2.58;1.30;;;1.80;99.90;;;;;;6180875;23;20017;-79
2023/03/08 08:09:38;;;;;;;3.10;1.13;;;1.30;99.90;;;;;;6204596;23;20020;-82
2023/03/08 08:12:04;;;;;;;3.00;1.10;;;0.90;99.90;;;;;;6179832;23;20043;-82
2023/03/08 08:14:30;;;;;;;2.53;1.02;;;1.00;99.90;;;;;;6204658;23;20063;-82
2023/03/08 08:16:56;;;;;;;5.63;1.13;;;1.20;99.90;;;;;;6180070;23;20024;-83
2023/03/08 08:19:23;;;;;;;3.28;1.20;;;1.20;99.90;;;;;;6180564;23;20020;-82
2023/03/08 08:21:48;;;;;;;4.38;1.58;;;2.40;99.90;;;;;;6207449;23;20024;-83
2023/03/08 08:24:14;;;;;;;4.55;1.10;;;2.60;99.90;;;;;;6178661;23;20016;-83
2023/03/08 08:26:46;;;;;;;3.13;1.63;;;1.40;99.90;;;;;;6135587;23;20086;-82
2023/03/08 08:29:12;;;;;;;3.60;1.00;;;1.50;99.90;;;;;;6158254;23;20017;-83
2023/03/08 08:31:38;;;;;;;5.38;1.40;;;1.90;99.90;;;;;;6157248;23;20023;-82
2023/03/08 08:34:04;;;;;;;3.28;1.20;;;1.80;99.90;;;;;;6182795;23;20024;-83
2023/03/08 08:36:29;;;;;;;2.50;1.05;;;2.10;99.90;;;;;;6157581;23;20021;-82
2023/03/08 08:38:55;;;;;;;3.45;1.00;;;2.00;99.90;;;;;;6158234;23;20111;-83
2023/03/08 08:41:22;;;;;;;1.92;0.98;;;2.10;99.90;;;;;;6133018;23;20666;-84
2023/03/08 08:43:48;;;;;;;2.30;0.98;;;2.20;99.90;;;;;;6182940;23;20024;-82
2023/03/08 08:46:15;;;;;;;2.65;1.00;;;1.30;99.90;;;;;;6158166;23;20024;-83
2023/03/08 08:48:41;;;;;;;4.38;1.00;;;2.40;99.90;;;;;;6157560;23;20017;-83
2023/03/08 08:51:10;;;;;;;3.55;1.02;;;2.30;99.90;;;;;;6182865;23;20095;-84
2023/03/08 08:53:36;;;;;;;1.30;0.70;;;2.70;99.90;;;;;;6157235;23;20675;-83
2023/03/08 08:56:27;;;;;;;4.25;1.05;;;2.50;99.90;;;;;;6132805;23;20031;-83
2023/03/08 08:58:54;;;;;;;2.88;0.90;;;2.70;99.90;;;;;;6182921;23;20415;-83
2023/03/08 09:01:23;;;;;;;2.83;0.80;;;3.00;99.90;;;;;;6133302;23;20024;-84
2023/03/08 09:03:50;;;;;;;5.22;1.00;;;4.10;99.90;;;;;;6182913;23;20017;-84
2023/03/08 09:06:20;;;;;;;2.00;0.75;;;2.90;99.90;;;;;;6158062;23;20050;-83
2023/03/08 09:08:56;;;;;;;2.65;1.20;;;3.00;99.90;;;;;;6182790;23;20021;-83
2023/03/08 09:11:24;;;;;;;3.67;1.08;;;3.20;99.90;;;;;;6157934;23;20040;-83
2023/03/08 09:13:50;;;;;;;4.50;0.90;;;2.60;99.90;;;;;;6158681;23;20025;-83
2023/03/08 09:16:21;;;;;;;3.45;1.58;;;3.80;99.90;;;;;;6160104;23;20027;-83
2023/03/08 09:18:47;;;;;;;3.30;0.98;;;3.50;99.90;;;;;;6158276;23;20031;-83
2023/03/08 09:21:13;;;;;;;3.42;1.00;;;3.50;99.90;;;;;;6160127;23;20016;-83
2023/03/08 09:23:39;;;;;;;2.45;0.93;;;3.60;99.90;;;;;;6158085;23;20021;-83
2023/03/08 09:26:05;;;;;;;3.08;0.80;;;3.90;99.90;;;;;;6202989;23;20351;-84
2023/03/08 09:28:32;;;;;;;2.42;1.00;;;3.80;99.90;;;;;;6207211;23;20028;-84
2023/03/08 09:30:57;;;;;;;2.22;0.80;;;3.90;99.90;;;;;;6207713;23;20020;-83
2023/03/08 09:33:24;;;;;;;4.75;1.10;;;4.00;99.90;;;;;;6207456;23;20019;-83
2023/03/08 09:35:59;;;;;;;5.35;1.00;;;4.00;99.90;;;;;;6182350;23;20035;-84
2023/03/08 09:38:25;;;;;;;3.97;1.30;;;4.10;99.90;;;;;;6182556;23;20026;-83
2023/03/08 09:41:24;;;;;;;3.83;1.10;;;4.20;99.90;;;;;;6207651;23;20016;-80
2023/03/08 09:44:09;;;;;;;2.88;1.10;;;4.30;99.90;;;;;;6206213;23;20021;-80
2023/03/08 09:46:45;;;;;;;3.50;1.00;;;4.50;99.90;;;;;;6197244;23;20027;-81
2023/03/08 09:49:28;;;;;;;2.38;0.80;;;4.70;99.90;;;;;;6206879;23;20063;-81
2023/03/08 09:52:12;;;;;;;3.33;1.05;;;4.90;99.90;;;;;;6206939;23;20020;-81
2023/03/08 09:54:39;;;;;;;3.70;1.02;;;5.20;99.90;;;;;;6206640;23;20504;-81
2023/03/08 09:57:11;;;;;;;2.53;0.90;;;5.30;99.90;;;;;;6207443;23;20017;-82
2023/03/08 09:59:55;;;;;;;2.70;1.10;;;5.50;99.90;;;;;;6209046;23;20754;-82
2023/03/08 10:03:11;;;;;;;1.90;1.30;;;5.60;99.90;;;;;;6209187;23;20402;-82
2023/03/08 10:05:47;;;;;;;2.67;0.95;;;5.70;99.90;;;;;;6175925;23;20343;-82
2023/03/08 10:08:14;;;;;;;2.45;1.00;;;6.10;99.90;;;;;;6185164;23;20120;-81
2023/03/08 10:10:59;;;;;;;2.20;1.02;;;6.00;99.90;;;;;;6183940;23;20804;-82
2023/03/08 10:13:32;;;;;;;3.38;0.95;;;6.00;99.90;;;;;;6209550;23;20023;-82
2023/03/08 10:16:18;;;;;;;4.80;1.20;;;6.00;99.90;;;;;;6209517;23;20122;-81
2023/03/08 10:18:59;;;;;;;3.53;0.90;;;6.10;99.90;;;;;;6185215;23;20052;-82
2023/03/08 10:21:26;;;;;;;1.85;1.00;;;6.10;99.90;;;;;;6183664;23;20068;-81
2023/03/08 10:24:10;;;;;;;2.42;1.08;;;6.20;99.90;;;;;;6208532;23;20021;-81
2023/03/08 10:26:42;;;;;;;3.53;0.93;;;6.20;99.90;;;;;;6209525;23;20024;-82
2023/03/08 10:29:11;;;;;;;2.97;0.90;;;6.30;99.90;;;;;;6159816;23;20096;-82
2023/03/08 10:31:37;;;;;;;1.92;0.95;;;6.30;99.90;;;;;;6182737;23;20467;-82
2023/03/08 10:34:09;;;;;;;2.05;1.00;;;6.30;99.90;;;;;;6209345;23;20071;-82
2023/03/08 10:36:50;;;;;;;2.63;0.88;;;6.30;99.90;;;;;;6208527;23;20127;-81
2023/03/08 10:39:16;;;;;;;6.65;1.17;;;6.40;99.90;;;;;;6209199;23;20021;-82
2023/03/08 10:41:46;;;;;;;3.35;1.08;;;6.40;99.90;;;;;;6208058;23;20020;-82
2023/03/08 10:44:27;;;;;;;3.63;1.05;;;6.40;99.90;;;;;;6209468;23;20091;-82
2023/03/08 10:46:52;;;;;;;3.97;1.42;;;6.30;99.90;;;;;;6208583;23;20023;-84
2023/03/08 10:49:22;;;;;;;4.65;1.27;;;6.70;99.90;;;;;;6159902;23;20021;-82
2023/03/08 10:51:53;;;;;;;3.30;1.08;;;5.40;99.90;;;;;;6208744;23;20024;-82
2023/03/08 10:54:19;;;;;;;2.35;1.00;;;6.50;99.90;;;;;;6209461;23;20016;-81
2023/03/08 10:56:52;;;;;;;3.15;1.23;;;6.70;99.90;;;;;;6208256;23;20407;-83
2023/03/08 10:59:36;;;;;;;5.40;1.38;;;6.80;99.90;;;;;;6210228;23;20020;-81
2023/03/08 11:02:17;;;;;;;2.22;1.10;;;6.90;99.90;;;;;;6212414;23;20044;-86
2023/03/08 11:04:54;;;;;;;7.50;1.42;;;7.00;99.90;;;;;;6209439;23;20012;-82
2023/03/08 11:07:29;;;;;;;2.17;0.93;;;7.00;99.90;;;;;;6210401;23;20016;-82
2023/03/08 11:10:15;;;;;;;1.67;1.10;;;7.00;99.90;;;;;;6210037;23;20106;-81
2023/03/08 11:12:41;;;;;;;3.45;1.55;;;7.10;99.90;;;;;;6209200;23;20024;-82
2023/03/08 11:15:18;;;;;;;2.60;1.10;;;7.10;99.90;;;;;;6209981;23;20016;-82
2023/03/08 11:17:55;;;;;;;2.90;1.35;;;7.20;99.90;;;;;;6210795;23;20356;-80
2023/03/08 11:20:35;;;;;;;3.00;1.08;;;7.20;99.90;;;;;;6211829;23;20185;-82
2023/03/08 11:23:33;;;;;;;1.75;1.05;;;7.20;99.90;;;;;;6186553;23;20151;-81
2023/03/08 11:26:08;;;;;;;2.67;1.48;;;7.40;99.90;;;;;;6210390;23;20100;-81
2023/03/08 11:29:31;;;;;;;2.28;1.10;;;7.50;99.90;;;;;;6209259;23;20025;-84
2023/03/08 11:32:03;;;;;;;3.20;1.20;;;7.60;99.90;;;;;;6070236;23;20029;-83
2023/03/08 11:35:00;;;;;;;1.80;1.20;;;7.80;99.90;;;;;;6091483;23;20026;-81
2023/03/08 11:37:35;;;;;;;;;;;7.80;99.90;;;;;;6187195;23;20026;-79
2023/03/08 11:40:23;;;;;;;2.95;1.27;;;7.80;99.90;;;;;;6180090;23;19995;-81
2023/03/08 11:43:13;;;;;;;2.08;0.95;;;7.90;99.90;;;;;;6179280;23;20031;-79
2023/03/08 11:45:51;;;;;;;3.80;1.17;;;8.00;99.90;;;;;;6204476;23;20413;-81
2023/03/08 11:48:46;;;;;;;2.65;1.00;;;8.10;99.90;;;;;;6205742;23;20024;-79
2023/03/08 11:51:34;;;;;;;2.67;1.10;;;8.10;99.90;;;;;;6205408;23;20119;-80
2023/03/08 11:54:20;;;;;;;3.63;1.23;;;8.20;99.90;;;;;;6204090;23;20344;-80
2023/03/08 11:56:58;;;;;;;2.28;0.90;;;8.30;99.90;;;;;;6203985;23;20020;-80
2023/03/08 11:59:50;;;;;;;2.50;0.90;;;8.40;99.90;;;;;;6205794;23;20078;-77
2023/03/08 12:02:33;;;;;;;5.55;1.80;;;8.50;99.90;;;;;;6203675;23;20052;-79
2023/03/08 12:05:06;;;;;;;2.47;1.00;;;8.60;99.90;;;;;;6203957;23;20016;-79
2023/03/08 12:07:54;;;;;;;1.75;0.85;;;8.60;99.90;;;;;;6205474;23;20023;-81
2023/03/08 12:10:24;;;;;;;3.40;1.20;;;8.60;99.90;;;;;;6206919;23;20031;-79
2023/03/08 12:12:55;;;;;;;4.25;0.95;;;8.50;99.90;;;;;;6204231;23;20402;-84
2023/03/08 12:15:39;;;;;;;3.03;1.20;;;8.50;99.90;;;;;;6181336;23;20025;-80
2023/03/08 12:18:20;;;;;;;2.40;0.93;;;8.70;99.90;;;;;;6205797;23;20211;-79
2023/03/08 12:20:47;;;;;;;2.50;0.90;;;8.90;99.90;;;;;;6204762;23;20039;-79
2023/03/08 12:23:31;;;;;;;1.88;1.02;;;9.30;99.90;;;;;;6181684;23;20082;-79
2023/03/08 12:26:16;;;;;;;5.47;1.33;;;9.80;99.90;;;;;;6204586;23;20025;-79
2023/03/08 12:29:06;;;;;;;2.67;1.10;;;10.30;99.90;;;;;;6205150;23;20063;-80
2023/03/08 12:31:45;;;;;;;2.05;0.85;;;10.80;99.90;;;;;;6205854;23;20059;-79
2023/03/08 12:34:34;;;;;;;4.15;1.00;;;11.30;99.90;;;;;;6205592;23;20112;-79
2023/03/08 12:37:00;;;;;;;2.78;1.10;;;11.40;99.90;;;;;;6205110;23;20063;-80
2023/03/08 12:39:30;;;;;;;3.03;1.08;;;11.50;99.90;;;;;;6181235;23;20016;-78
2023/03/08 12:42:06;;;;;;;3.83;1.20;;;11.60;99.90;;;;;;6204786;23;20021;-79
2023/03/08 12:44:32;;;;;;;3.45;0.95;;;11.70;99.90;;;;;;6180624;23;20013;-79
2023/03/08 12:47:03;;;;;;;3.05;1.00;;;11.70;99.90;;;;;;6203728;23;20463;-80
2023/03/08 12:49:37;;;;;;;3.42;1.00;;;11.70;99.90;;;;;;6180639;23;20020;-79
2023/03/08 12:52:22;;;;;;;4.32;0.95;;;11.70;99.90;;;;;;6204273;23;20537;-79
2023/03/08 12:55:04;;;;;;;2.53;1.10;;;11.90;99.90;;;;;;6204851;23;20075;-79
2023/03/08 12:57:34;;;;;;;3.53;0.90;;;12.10;99.10;;;;;;6205711;23;20024;-79
2023/03/08 13:00:36;;;;;;;2.05;0.90;;;12.10;99.40;;;;;;6204773;23;20094;-79
2023/03/08 13:03:34;;;;;;;1.83;0.90;;;12.10;97.10;;;;;;6166453;23;20099;-80
2023/03/08 13:06:00;;;;;;;2.30;0.93;;;12.00;95.60;;;;;;6204852;23;20024;-79
2023/03/08 13:08:38;;;;;;;1.77;0.90;;;11.80;99.00;;;;;;6178636;23;20108;-77
2023/03/08 13:11:13;;;;;;;3.47;1.00;;;11.40;98.70;;;;;;6204706;23;20103;-82